Buoy 63568

sailwx.info

Track history (hours):
 
Tides and Currents Weather Stations Pressure Air Temp Water Temp Dewpoint Dewpoint Depression Visibility Wind Speed Wind Dir Waves Ship Positions

Drifting buoy 63568

Last reported at 2018-Jun-24 02:00 UTC. Time now 2018-Jun-24 03:42 UTC.
Position N 73°07' E 017°53'.

Water temperature 6.8 ° C

Date/timePositionNaut miles runAvg speedWind from/ knotsBaromVisibWave heightAir tempDewpointWater temp
2018-Jun-24 02:00N 73°07' E 017°53'2 1.8 6.8
2018-Jun-24 01:00N 73°08' E 017°52'0 0.0 6.8
2018-Jun-24 00:00N 73°08' E 017°52'1 0.2 6.8
2018-Jun-23 16:00N 73°10' E 017°55'2 0.3 6.7
2018-Jun-23 08:00N 73°12' E 017°55'0 0.0 6.7
2018-Jun-23 07:00N 73°12' E 017°55'4 0.6 6.7
2018-Jun-23 01:00N 73°16' E 017°57'0 0.0 6.6
2018-Jun-22 20:00N 73°16' E 017°58'1 0.7 6.7
2018-Jun-22 19:00N 73°16' E 017°56'2 1.6 6.6
2018-Jun-22 18:00N 73°16' E 018°02'3 0.9 6.7
2018-Jun-22 15:00N 73°17' E 018°10'3 2.7 6.7
2018-Jun-22 14:00N 73°16' E 018°02'3 1.6 6.7
2018-Jun-22 12:00N 73°18' E 018°11'0 0.0 6.7
2018-Jun-22 11:00N 73°18' E 018°11'1 0.6 6.6
2018-Jun-22 10:00N 73°19' E 018°12'0 0.0 6.6
2018-Jun-22 09:00N 73°19' E 018°12'2 1.7 6.6
2018-Jun-22 08:00N 73°17' E 018°16'4 0.6 6.6
2018-Jun-22 01:00N 73°22' E 018°20'2 1.9 6.3
2018-Jun-22 00:00N 73°20' E 018°18'2 0.5 6.3
2018-Jun-21 19:00N 73°22' E 018°23'0 0.0 6.3
2018-Jun-21 18:00N 73°22' E 018°23'3 0.7 6.3
2018-Jun-21 13:00N 73°23' E 018°35'0 0.0 6.0
2018-Jun-21 12:00N 73°23' E 018°35'1 1.0 6.0
2018-Jun-21 11:00N 73°23' E 018°38'0 0.0 6.0
2018-Jun-21 10:00N 73°23' E 018°38'0 0.1 5.9
2018-Jun-21 08:00N 73°23' E 018°38'0 0.0 5.9
2018-Jun-21 07:00N 73°23' E 018°38'7 2.2 5.9
2018-Jun-21 04:00N 73°28' E 018°56'0 0.0 5.9
2018-Jun-20 20:00N 73°28' E 018°56'1 0.5 6.1
2018-Jun-20 19:00N 73°28' E 018°58'1 0.2 6.1
2018-Jun-20 16:00N 73°28' E 018°59'1 0.3 6.2
2018-Jun-20 12:00N 73°28' E 019°04'1 0.5 6.3
2018-Jun-20 10:00N 73°29' E 019°06'0 0.2 6.2
2018-Jun-20 09:00N 73°29' E 019°07'1 0.6 6.3
2018-Jun-20 08:00N 73°29' E 019°07'1 1.2 6.2
2018-Jun-20 07:00N 73°29' E 019°02'0 0.0 6.2
2018-Jun-20 06:00N 73°29' E 019°02'1 0.5 6.1
2018-Jun-20 04:00N 73°29' E 018°59'1 0.1 6.1
2018-Jun-19 19:00N 73°29' E 018°55'1 0.9 6.1
2018-Jun-19 18:00N 73°28' E 018°53'2 0.3 6.1
2018-Jun-19 12:00N 73°27' E 018°47'1 0.4 6.2
2018-Jun-19 10:00N 73°28' E 018°46'1 0.6 6.3
2018-Jun-19 09:00N 73°27' E 018°46'1 0.3 6.3
2018-Jun-19 07:00N 73°28' E 018°46'1 0.4 6.1
2018-Jun-19 05:00N 73°28' E 018°44'5 0.6 6.1
2018-Jun-18 20:00N 73°28' E 019°02'5 1.7 6.0
2018-Jun-18 17:00N 73°26' E 019°18'0 0.0 5.9
2018-Jun-18 16:00N 73°26' E 019°18'0 0.0 5.9
2018-Jun-18 12:00N 73°26' E 019°18'1 0.6 5.8
2018-Jun-18 11:00N 73°26' E 019°19'4 1.0 5.8
2018-Jun-18 07:00N 73°26' E 019°32'0 0.0 5.8
2018-Jun-18 06:00N 73°26' E 019°32'0 0.0 5.8
2018-Jun-18 05:00N 73°26' E 019°32'0 0.0 5.7
2018-Jun-18 04:00N 73°26' E 019°32'1 0.4 5.7
2018-Jun-18 02:00N 73°26' E 019°35'1 1.5 5.7
2018-Jun-18 01:00N 73°27' E 019°40'0 0.0 5.7
2018-Jun-17 21:00N 73°27' E 019°40'3 0.5 5.7
2018-Jun-17 16:00N 73°25' E 019°34'0 0.0 5.8
2018-Jun-17 15:00N 73°25' E 019°34'2 0.4 5.7
2018-Jun-17 10:00N 73°23' E 019°31'4 3.7 5.9
2018-Jun-17 09:00N 73°23' E 019°18'0 0.0 5.9
2018-Jun-17 04:00N 73°23' E 019°18'6 2.8 6.0
2018-Jun-17 02:00N 73°20' E 019°00'4 3.8 5.9
2018-Jun-17 01:00N 73°22' E 019°13'4 0.7 6.0
2018-Jun-16 19:00N 73°20' E 018°58'1 0.4 6.2
2018-Jun-16 16:00N 73°21' E 018°55'1 0.4 6.2
2018-Jun-16 14:00N 73°21' E 018°52'2 1.5 6.3
2018-Jun-16 13:00N 73°20' E 018°47'0 0.0 6.3
2018-Jun-16 12:00N 73°20' E 018°47'0 0.0 6.3
2018-Jun-16 11:00N 73°20' E 018°47'0 0.1 6.3
2018-Jun-16 09:00N 73°20' E 018°47'0 0.0 6.3
2018-Jun-16 08:00N 73°20' E 018°47'1 0.5 6.3
2018-Jun-16 06:00N 73°21' E 018°45'2 0.9 6.3
2018-Jun-16 04:00N 73°21' E 018°38'0 0.2 6.3
2018-Jun-16 02:00N 73°21' E 018°37'0 0.2 6.3
2018-Jun-16 01:00N 73°21' E 018°37'1 1.0 6.3
2018-Jun-16 00:00N 73°22' E 018°34'1 1.0 6.3
2018-Jun-15 23:00N 73°21' E 018°37'1 0.3 6.3
2018-Jun-15 20:00N 73°22' E 018°34'3 3.3 6.3
2018-Jun-15 19:00N 73°20' E 018°24'0 0.0 6.3
2018-Jun-15 18:00N 73°20' E 018°24'0 0.0 6.3
2018-Jun-15 17:00N 73°20' E 018°24'1 0.3 6.3
2018-Jun-15 13:00N 73°21' E 018°25'1 1.0 6.3
2018-Jun-15 12:00N 73°20' E 018°22'1 0.3 6.3
2018-Jun-15 10:00N 73°21' E 018°20'1 0.6 6.2
2018-Jun-15 09:00N 73°20' E 018°20'2 1.0 6.2
2018-Jun-15 07:00N 73°22' E 018°14'1 0.1 6.2
2018-Jun-15 03:00N 73°22' E 018°13'1 0.2 6.2
2018-Jun-14 22:00N 73°22' E 018°09'1 0.7 6.2
2018-Jun-14 21:00N 73°22' E 018°08'1 0.7 6.3
2018-Jun-14 20:00N 73°22' E 018°09'1 0.4 6.3
2018-Jun-14 17:00N 73°23' E 018°05'1 0.2 6.4
2018-Jun-14 13:00N 73°23' E 018°04'1 0.3 6.4
2018-Jun-14 10:00N 73°24' E 018°01'0 0.2 6.2
2018-Jun-14 09:00N 73°24' E 018°01'0 0.0 6.2
2018-Jun-14 08:00N 73°24' E 018°01'1 0.6 6.1
2018-Jun-14 07:00N 73°25' E 018°00'2 0.7 6.1
2018-Jun-14 04:00N 73°26' E 017°56'0 0.0 6.1
2018-Jun-14 03:00N 73°26' E 017°56'1 0.9 6.1
2018-Jun-14 02:00N 73°26' E 017°53'   6.1
Track history (hours):
 
Tides and Currents Weather Stations Pressure Air Temp Water Temp Dewpoint Dewpoint Depression Visibility Wind Speed Wind Dir Waves Ship Positions

Drifting buoy 63568

Last reported at 2018-Jun-24 02:00 UTC. Time now 2018-Jun-24 03:42 UTC.
Position N 73°07' E 017°53'.

Water temperature 6.8 ° C

Date/timePositionNaut miles runAvg speedWind from/ knotsBaromVisibWave heightAir tempDewpointWater temp
2018-Jun-24 02:00N 73°07' E 017°53'2 1.8 6.8
2018-Jun-24 01:00N 73°08' E 017°52'0 0.0 6.8
2018-Jun-24 00:00N 73°08' E 017°52'1 0.2 6.8
2018-Jun-23 16:00N 73°10' E 017°55'2 0.3 6.7
2018-Jun-23 08:00N 73°12' E 017°55'0 0.0 6.7
2018-Jun-23 07:00N 73°12' E 017°55'4 0.6 6.7
2018-Jun-23 01:00N 73°16' E 017°57'0 0.0 6.6
2018-Jun-22 20:00N 73°16' E 017°58'1 0.7 6.7
2018-Jun-22 19:00N 73°16' E 017°56'2 1.6 6.6
2018-Jun-22 18:00N 73°16' E 018°02'3 0.9 6.7
2018-Jun-22 15:00N 73°17' E 018°10'3 2.7 6.7
2018-Jun-22 14:00N 73°16' E 018°02'3 1.6 6.7
2018-Jun-22 12:00N 73°18' E 018°11'0 0.0 6.7
2018-Jun-22 11:00N 73°18' E 018°11'1 0.6 6.6
2018-Jun-22 10:00N 73°19' E 018°12'0 0.0 6.6
2018-Jun-22 09:00N 73°19' E 018°12'2 1.7 6.6
2018-Jun-22 08:00N 73°17' E 018°16'4 0.6 6.6
2018-Jun-22 01:00N 73°22' E 018°20'2 1.9 6.3
2018-Jun-22 00:00N 73°20' E 018°18'2 0.5 6.3
2018-Jun-21 19:00N 73°22' E 018°23'0 0.0 6.3
2018-Jun-21 18:00N 73°22' E 018°23'3 0.7 6.3
2018-Jun-21 13:00N 73°23' E 018°35'0 0.0 6.0
2018-Jun-21 12:00N 73°23' E 018°35'1 1.0 6.0
2018-Jun-21 11:00N 73°23' E 018°38'0 0.0 6.0
2018-Jun-21 10:00N 73°23' E 018°38'0 0.1 5.9
2018-Jun-21 08:00N 73°23' E 018°38'0 0.0 5.9
2018-Jun-21 07:00N 73°23' E 018°38'7 2.2 5.9
2018-Jun-21 04:00N 73°28' E 018°56'0 0.0 5.9
2018-Jun-20 20:00N 73°28' E 018°56'1 0.5 6.1
2018-Jun-20 19:00N 73°28' E 018°58'1 0.2 6.1
2018-Jun-20 16:00N 73°28' E 018°59'1 0.3 6.2
2018-Jun-20 12:00N 73°28' E 019°04'1 0.5 6.3
2018-Jun-20 10:00N 73°29' E 019°06'0 0.2 6.2
2018-Jun-20 09:00N 73°29' E 019°07'1 0.6 6.3
2018-Jun-20 08:00N 73°29' E 019°07'1 1.2 6.2
2018-Jun-20 07:00N 73°29' E 019°02'0 0.0 6.2
2018-Jun-20 06:00N 73°29' E 019°02'1 0.5 6.1
2018-Jun-20 04:00N 73°29' E 018°59'1 0.1 6.1
2018-Jun-19 19:00N 73°29' E 018°55'1 0.9 6.1
2018-Jun-19 18:00N 73°28' E 018°53'2 0.3 6.1
2018-Jun-19 12:00N 73°27' E 018°47'1 0.4 6.2
2018-Jun-19 10:00N 73°28' E 018°46'1 0.6 6.3
2018-Jun-19 09:00N 73°27' E 018°46'1 0.3 6.3
2018-Jun-19 07:00N 73°28' E 018°46'1 0.4 6.1
2018-Jun-19 05:00N 73°28' E 018°44'5 0.6 6.1
2018-Jun-18 20:00N 73°28' E 019°02'5 1.7 6.0
2018-Jun-18 17:00N 73°26' E 019°18'0 0.0 5.9
2018-Jun-18 16:00N 73°26' E 019°18'0 0.0 5.9
2018-Jun-18 12:00N 73°26' E 019°18'1 0.6 5.8
2018-Jun-18 11:00N 73°26' E 019°19'4 1.0 5.8
2018-Jun-18 07:00N 73°26' E 019°32'0 0.0 5.8
2018-Jun-18 06:00N 73°26' E 019°32'0 0.0 5.8
2018-Jun-18 05:00N 73°26' E 019°32'0 0.0 5.7
2018-Jun-18 04:00N 73°26' E 019°32'1 0.4 5.7
2018-Jun-18 02:00N 73°26' E 019°35'1 1.5 5.7
2018-Jun-18 01:00N 73°27' E 019°40'0 0.0 5.7
2018-Jun-17 21:00N 73°27' E 019°40'3 0.5 5.7
2018-Jun-17 16:00N 73°25' E 019°34'0 0.0 5.8
2018-Jun-17 15:00N 73°25' E 019°34'2 0.4 5.7
2018-Jun-17 10:00N 73°23' E 019°31'4 3.7 5.9
2018-Jun-17 09:00N 73°23' E 019°18'0 0.0 5.9
2018-Jun-17 04:00N 73°23' E 019°18'6 2.8 6.0
2018-Jun-17 02:00N 73°20' E 019°00'4 3.8 5.9
2018-Jun-17 01:00N 73°22' E 019°13'4 0.7 6.0
2018-Jun-16 19:00N 73°20' E 018°58'1 0.4 6.2
2018-Jun-16 16:00N 73°21' E 018°55'1 0.4 6.2
2018-Jun-16 14:00N 73°21' E 018°52'2 1.5 6.3
2018-Jun-16 13:00N 73°20' E 018°47'0 0.0 6.3
2018-Jun-16 12:00N 73°20' E 018°47'0 0.0 6.3
2018-Jun-16 11:00N 73°20' E 018°47'0 0.1 6.3
2018-Jun-16 09:00N 73°20' E 018°47'0 0.0 6.3
2018-Jun-16 08:00N 73°20' E 018°47'1 0.5 6.3
2018-Jun-16 06:00N 73°21' E 018°45'2 0.9 6.3
2018-Jun-16 04:00N 73°21' E 018°38'0 0.2 6.3
2018-Jun-16 02:00N 73°21' E 018°37'0 0.2 6.3
2018-Jun-16 01:00N 73°21' E 018°37'1 1.0 6.3
2018-Jun-16 00:00N 73°22' E 018°34'1 1.0 6.3
2018-Jun-15 23:00N 73°21' E 018°37'1 0.3 6.3
2018-Jun-15 20:00N 73°22' E 018°34'3 3.3 6.3
2018-Jun-15 19:00N 73°20' E 018°24'0 0.0 6.3
2018-Jun-15 18:00N 73°20' E 018°24'0 0.0 6.3
2018-Jun-15 17:00N 73°20' E 018°24'1 0.3 6.3
2018-Jun-15 13:00N 73°21' E 018°25'1 1.0 6.3
2018-Jun-15 12:00N 73°20' E 018°22'1 0.3 6.3
2018-Jun-15 10:00N 73°21' E 018°20'1 0.6 6.2
2018-Jun-15 09:00N 73°20' E 018°20'2 1.0 6.2
2018-Jun-15 07:00N 73°22' E 018°14'1 0.1 6.2
2018-Jun-15 03:00N 73°22' E 018°13'1 0.2 6.2
2018-Jun-14 22:00N 73°22' E 018°09'1 0.7 6.2
2018-Jun-14 21:00N 73°22' E 018°08'1 0.7 6.3
2018-Jun-14 20:00N 73°22' E 018°09'1 0.4 6.3
2018-Jun-14 17:00N 73°23' E 018°05'1 0.2 6.4
2018-Jun-14 13:00N 73°23' E 018°04'1 0.3 6.4
2018-Jun-14 10:00N 73°24' E 018°01'0 0.2 6.2
2018-Jun-14 09:00N 73°24' E 018°01'0 0.0 6.2
2018-Jun-14 08:00N 73°24' E 018°01'1 0.6 6.1
2018-Jun-14 07:00N 73°25' E 018°00'2 0.7 6.1
2018-Jun-14 04:00N 73°26' E 017°56'0 0.0 6.1
2018-Jun-14 03:00N 73°26' E 017°56'1 0.9 6.1
2018-Jun-14 02:00N 73°26' E 017°53'   6.1

Dump ship's entire track history